createdAt,value
2022-10-07T00:03:04.173Z,106.1892
2022-10-07T00:08:05.773Z,105.65585
2022-10-07T00:13:07.385Z,94.51545
2022-10-07T00:18:08.991Z,79.1678
2022-10-07T00:23:10.576Z,69.62735
2022-10-07T00:28:12.282Z,63.5831
2022-10-07T00:33:13.921Z,62.872
2022-10-07T00:38:15.534Z,61.6276
2022-10-07T00:43:17.164Z,55.40555
2022-10-07T00:48:18.724Z,43.4356
2022-10-07T00:53:20.341Z,30.8138
2022-10-07T00:58:21.916Z,24.17695
2022-10-07T01:03:23.520Z,17.7179
2022-10-07T01:08:25.093Z,12.3255
2022-10-07T01:13:26.752Z,6.87385
2022-10-07T01:18:28.424Z,4.4078
2022-10-07T01:23:30.088Z,2.87705
2022-10-07T01:28:31.890Z,1.53075
2022-10-07T01:33:33.583Z,0.47405
2022-10-07T01:38:35.158Z,0
2022-10-07T01:43:36.758Z,0
2022-10-07T01:48:38.392Z,0
2022-10-07T01:53:39.992Z,0
2022-10-07T01:58:41.624Z,0
2022-10-07T02:03:43.372Z,0
2022-10-07T02:08:45.013Z,0
2022-10-07T02:13:46.704Z,0
2022-10-07T02:18:48.330Z,0
2022-10-07T02:23:49.936Z,0
2022-10-07T02:28:51.506Z,0
2022-10-07T02:33:53.116Z,0
2022-10-07T02:38:54.749Z,0
2022-10-07T02:43:56.314Z,0
2022-10-07T02:48:58.009Z,0
2022-10-07T02:53:59.655Z,0
2022-10-07T02:59:01.244Z,0
2022-10-07T03:04:02.974Z,0
2022-10-07T03:09:04.610Z,0
2022-10-07T03:14:06.334Z,0
2022-10-07T03:19:08.009Z,0
2022-10-07T03:24:09.630Z,0
2022-10-07T03:29:11.217Z,0
2022-10-07T03:34:12.794Z,0
2022-10-07T03:39:14.460Z,0
2022-10-07T03:44:16.042Z,0
2022-10-07T03:49:17.645Z,0
2022-10-07T03:54:19.270Z,0
2022-10-07T03:59:20.856Z,0
2022-10-07T04:04:22.444Z,0
2022-10-07T04:09:24.049Z,0
2022-10-07T04:14:25.668Z,0
2022-10-07T04:19:27.306Z,0
2022-10-07T04:24:28.886Z,0
2022-10-07T04:29:33.116Z,0
2022-10-07T04:34:37.106Z,0
2022-10-07T04:44:44.637Z,0
2022-10-07T04:49:46.225Z,0
2022-10-07T04:54:47.843Z,0
2022-10-07T04:59:49.580Z,0
2022-10-07T05:04:51.182Z,0
2022-10-07T05:09:52.911Z,0
2022-10-07T05:14:54.506Z,0
2022-10-07T05:19:56.095Z,0
2022-10-07T05:24:57.733Z,0
2022-10-07T05:29:59.307Z,0
2022-10-07T05:35:00.960Z,0
2022-10-07T05:40:02.576Z,0
2022-10-07T05:45:04.176Z,0
2022-10-07T05:50:05.847Z,0
2022-10-07T05:55:07.423Z,0
2022-10-07T06:00:09.014Z,0
2022-10-07T06:05:10.653Z,0
2022-10-07T06:10:12.234Z,0
2022-10-07T06:15:13.887Z,0
2022-10-07T06:20:15.486Z,0
2022-10-07T06:25:17.071Z,0
2022-10-07T06:30:18.676Z,0
2022-10-07T06:35:20.317Z,0
2022-10-07T06:40:21.904Z,0
2022-10-07T06:45:23.520Z,0
2022-10-07T06:50:25.104Z,0
2022-10-07T06:55:26.734Z,0
2022-10-07T07:00:28.344Z,0
2022-10-07T07:05:29.986Z,0
2022-10-07T07:10:31.683Z,0
2022-10-07T07:15:33.411Z,0
2022-10-07T07:20:34.998Z,0
2022-10-07T07:25:36.618Z,0
2022-10-07T07:30:38.298Z,0
2022-10-07T07:35:39.888Z,0
2022-10-07T07:40:41.576Z,0
2022-10-07T07:45:43.299Z,0
2022-10-07T07:50:44.909Z,0
2022-10-07T07:55:46.540Z,0
2022-10-07T08:00:48.155Z,0
2022-10-07T08:05:49.878Z,0
2022-10-07T08:10:52.110Z,0
2022-10-07T08:15:53.821Z,0
2022-10-07T08:20:55.425Z,0
2022-10-07T08:25:57.028Z,0
2022-10-07T08:30:58.651Z,0
2022-10-07T08:36:00.294Z,0
2022-10-07T08:41:01.967Z,0
2022-10-07T08:46:03.597Z,0
2022-10-07T08:51:05.232Z,0
2022-10-07T08:56:06.958Z,0
2022-10-07T09:01:08.605Z,0
2022-10-07T09:06:10.257Z,0
2022-10-07T09:11:11.891Z,0
2022-10-07T09:16:13.589Z,0
2022-10-07T09:21:15.199Z,0
2022-10-07T09:26:16.850Z,0
2022-10-07T09:31:18.509Z,0
2022-10-07T09:36:20.173Z,0
2022-10-07T09:41:21.842Z,0
2022-10-07T09:46:23.528Z,0
2022-10-07T09:51:25.164Z,0
2022-10-07T09:56:26.725Z,0
2022-10-07T10:01:28.294Z,0
2022-10-07T10:06:29.908Z,0
2022-10-07T10:11:31.490Z,0
2022-10-07T10:16:33.053Z,0
2022-10-07T10:21:34.686Z,0
2022-10-07T10:26:36.318Z,0
2022-10-07T10:31:37.953Z,0
2022-10-07T10:36:39.631Z,0
2022-10-07T10:41:41.249Z,0
2022-10-07T10:46:42.918Z,0
2022-10-07T10:51:44.646Z,0
2022-10-07T10:56:46.254Z,0
2022-10-07T11:01:47.950Z,0
2022-10-07T11:06:49.642Z,0
2022-10-07T11:11:51.269Z,0
2022-10-07T11:16:52.914Z,0
2022-10-07T11:21:54.504Z,0
2022-10-07T11:26:56.107Z,0
2022-10-07T11:31:57.699Z,0
2022-10-07T11:36:59.475Z,0
2022-10-07T11:42:01.142Z,0
2022-10-07T11:47:02.793Z,0
2022-10-07T11:52:04.431Z,0
2022-10-07T11:57:06.026Z,0
2022-10-07T12:02:07.687Z,0
2022-10-07T12:07:09.347Z,0
2022-10-07T12:12:10.959Z,0
2022-10-07T12:17:12.548Z,0
2022-10-07T12:22:14.116Z,0
2022-10-07T12:27:15.692Z,0
2022-10-07T12:32:17.306Z,0
2022-10-07T12:37:18.923Z,0
2022-10-07T12:42:20.589Z,0
2022-10-07T12:47:22.167Z,0
2022-10-07T12:52:23.758Z,0
2022-10-07T12:57:25.343Z,0
2022-10-07T13:02:27.060Z,0
2022-10-07T13:07:28.790Z,0
2022-10-07T13:12:30.362Z,0
2022-10-07T13:17:31.965Z,0
2022-10-07T13:22:33.566Z,0
2022-10-07T13:27:35.198Z,0
2022-10-07T13:32:36.793Z,0
2022-10-07T13:37:38.410Z,0
2022-10-07T13:42:40.014Z,0.59255
2022-10-07T13:47:41.640Z,2.1925
2022-10-07T13:52:43.420Z,3.3776
2022-10-07T13:57:45.298Z,5.33005
2022-10-07T14:02:47.234Z,6.99235
2022-10-07T14:07:49.066Z,11.67365
2022-10-07T14:12:50.671Z,16.41425
2022-10-07T14:17:52.287Z,22.1622
2022-10-07T14:22:53.897Z,27.4954
2022-10-07T14:27:55.469Z,34.48775
2022-10-07T14:32:57.090Z,42.25045
2022-10-07T14:37:58.672Z,49.36135
2022-10-07T14:43:00.238Z,56.47225
2022-10-07T14:48:01.912Z,67.84965
2022-10-07T14:53:03.549Z,82.1899
2022-10-07T14:58:05.138Z,215.2817
2022-10-07T15:03:06.711Z,1826.02535
2022-10-07T15:08:08.314Z,253.3514
2022-10-07T15:13:13.182Z,167.40165
2022-10-07T15:18:15.109Z,156.26125
2022-10-07T15:23:16.698Z,152.11335
2022-10-07T15:28:18.390Z,168.4683
2022-10-07T15:33:19.999Z,201.41515
2022-10-07T15:38:21.610Z,253.0282
2022-10-07T15:43:23.252Z,213.02975
2022-10-07T15:48:24.880Z,224.99965
2022-10-07T15:53:26.446Z,232.40685
2022-10-07T15:58:28.036Z,207.40045
2022-10-07T16:03:29.635Z,203.96345
2022-10-07T16:08:31.207Z,234.12535
2022-10-07T16:13:32.772Z,224.2887
2022-10-07T16:18:34.413Z,196.31935
2022-10-07T16:23:35.994Z,186.4828
2022-10-07T16:28:37.702Z,170.9574
2022-10-07T16:33:39.396Z,186.779
2022-10-07T16:38:41.041Z,272.28695
2022-10-07T16:43:42.658Z,292.8492
2022-10-07T16:48:44.261Z,304.5821
2022-10-07T16:53:45.819Z,301.56
2022-10-07T16:58:47.446Z,313.6485
2022-10-07T17:03:49.130Z,370.7723
2022-10-07T17:08:50.897Z,363.95765
2022-10-07T17:13:52.490Z,323.07025
2022-10-07T17:18:54.099Z,338.477
2022-10-07T17:23:55.718Z,351.80975
2022-10-07T17:28:57.347Z,324.61085
2022-10-07T17:33:58.949Z,321.05545
2022-10-07T17:39:00.566Z,379.00885
2022-10-07T17:44:02.148Z,425.0516
2022-10-07T17:49:03.801Z,471.2131
2022-10-07T17:54:05.408Z,441.9404
2022-10-07T17:59:07.026Z,431.7482
2022-10-07T18:04:08.679Z,471.56895
2022-10-07T18:09:10.531Z,446.0883
2022-10-07T18:14:12.152Z,476.19075
2022-10-07T18:19:13.861Z,452.25085
2022-10-07T18:24:15.463Z,431.33305
2022-10-07T18:29:17.142Z,422.0298
2022-10-07T18:34:18.760Z,441.7625
2022-10-07T18:39:20.341Z,540.54375
2022-10-07T18:44:21.951Z,491.0642
2022-10-07T18:49:23.564Z,471.92435
2022-10-07T18:54:25.139Z,414.0303
2022-10-07T18:59:26.754Z,502.6786
2022-10-07T19:04:28.367Z,474.88715
2022-10-07T19:09:29.935Z,453.91
2022-10-07T19:14:31.540Z,439.3327
2022-10-07T19:19:33.107Z,393.053
2022-10-07T19:24:34.699Z,492.3674
2022-10-07T19:29:36.297Z,533.4325
2022-10-07T19:34:37.869Z,494.3823
2022-10-07T19:39:39.457Z,399.1563
2022-10-07T19:44:41.052Z,456.57635
2022-10-07T19:49:42.621Z,506.8858
2022-10-07T19:54:44.220Z,550.5586
2022-10-07T19:59:45.850Z,587.47605
2022-10-07T20:04:47.420Z,622.0823
2022-10-07T20:09:49.032Z,612.8976
2022-10-07T20:14:50.652Z,624.86745
2022-10-07T20:19:52.266Z,527.80435
2022-10-07T20:24:53.848Z,526.97465
2022-10-07T20:29:55.485Z,550.9737
2022-10-07T20:34:57.090Z,560.69185
2022-10-07T20:39:58.686Z,363.899
2022-10-07T20:45:00.296Z,289.41265
2022-10-07T20:50:01.913Z,406.0303
2022-10-07T20:55:03.471Z,416.1041
2022-10-07T21:00:05.070Z,422.0298
2022-10-07T21:05:06.656Z,396.8454
2022-10-07T21:10:08.315Z,238.9254
2022-10-07T21:15:09.888Z,180.0238
2022-10-07T21:20:11.457Z,210.3041
2022-10-07T21:25:13.048Z,243.72505
2022-10-07T21:30:14.783Z,208.94115
2022-10-07T21:35:16.352Z,199.9933
2022-10-07T21:40:17.980Z,203.48945
2022-10-07T21:45:19.563Z,223.51835
2022-10-07T21:50:21.130Z,240.70285
2022-10-07T21:55:22.684Z,281.64955
2022-10-07T22:00:24.293Z,353.94315
2022-10-07T22:05:25.895Z,342.5658
2022-10-07T22:10:27.478Z,295.16015
2022-10-07T22:15:29.094Z,273.709
2022-10-07T22:20:30.722Z,221.5628
2022-10-07T22:25:32.343Z,223.459
2022-10-07T22:30:34.028Z,253.5616
2022-10-07T22:35:35.649Z,277.08665
2022-10-07T22:40:37.243Z,310.86315
2022-10-07T22:45:38.845Z,266.7759
2022-10-07T22:50:40.502Z,250.12465
2022-10-07T22:55:42.125Z,239.33985
2022-10-07T23:00:43.781Z,221.5627
2022-10-07T23:05:45.402Z,223.51815
2022-10-07T23:10:47.016Z,228.49565
2022-10-07T23:15:48.667Z,283.5454
2022-10-07T23:20:50.355Z,379.66015
2022-10-07T23:25:51.977Z,290.77465
2022-10-07T23:30:53.693Z,238.33205
2022-10-07T23:35:55.330Z,167.9941
2022-10-07T23:40:56.908Z,141.50625
2022-10-07T23:45:58.546Z,132.0251
2022-10-07T23:51:00.179Z,125.86235
2022-10-07T23:56:01.779Z,114.6627
